Time;durP1;ratioP1;P1;durP2;ratioP2;P2;SDS_P1;SDS_P2;PMS_P1;PMS_P2;Temp;Humidity;BMP_temperature;BMP_pressure;BME280_temperature;BME280_humidity;BME280_pressure;Samples;Min_cycle;Max_cycle;Signal;HPM_P1;HPM_P2
2023/08/15 00:01:10;;;;;;;;;;;17.40;75.20;;;;;;5066670;28;19919;-82
2023/08/15 00:03:36;;;;;;;;;;;17.50;75.30;;;;;;5049740;28;19951;-82
2023/08/15 00:06:01;;;;;;;;;;;17.40;75.30;;;;;;5066601;28;19960;-82
2023/08/15 00:08:27;;;;;;;;;;;17.40;75.30;;;;;;5066581;28;19913;-82
2023/08/15 00:10:52;;;;;;;;;;;17.40;75.30;;;;;;5049882;28;20372;-82
2023/08/15 00:13:18;;;;;;;;;;;17.40;75.30;;;;;;5050132;28;19919;-82
2023/08/15 00:15:43;;;;;;;;;;;17.30;75.30;;;;;;5049811;28;19923;-83
2023/08/15 00:18:09;;;;;;;;;;;17.40;75.40;;;;;;5068164;28;19961;-83
2023/08/15 00:20:34;;;;;;;;;;;17.30;75.40;;;;;;5053392;28;19915;-82
2023/08/15 00:23:00;;;;;;;;;;;17.30;75.30;;;;;;5053417;28;19959;-82
2023/08/15 00:25:26;;;;;;;;;;;17.30;75.30;;;;;;5071198;28;19944;-83
2023/08/15 00:27:52;;;;;;;;;;;17.30;75.30;;;;;;5071296;28;19909;-83
2023/08/15 00:30:17;;;;;;;;;;;17.40;75.40;;;;;;5070913;28;19981;-82
2023/08/15 00:32:43;;;;;;;;;;;17.40;75.30;;;;;;5070257;28;19924;-82
2023/08/15 00:35:09;;;;;;;;;;;17.40;75.30;;;;;;5069915;28;20353;-82
2023/08/15 00:37:35;;;;;;;;;;;17.40;75.20;;;;;;5053432;28;19917;-82
2023/08/15 00:40:00;;;;;;;;;;;17.30;75.10;;;;;;5053427;28;19920;-83
2023/08/15 00:42:26;;;;;;;;;;;17.20;75.50;;;;;;5069525;28;19913;-82
2023/08/15 00:44:52;;;;;;;;;;;17.10;75.00;;;;;;5070869;28;19931;-82
2023/08/15 00:47:18;;;;;;;;;;;17.00;75.00;;;;;;5052932;28;19916;-82
2023/08/15 00:49:44;;;;;;;;;;;16.90;75.10;;;;;;5069424;28;19948;-81
2023/08/15 00:52:11;;;;;;;;;;;16.80;75.20;;;;;;5069809;28;19948;-82
2023/08/15 00:54:37;;;;;;;;;;;16.80;75.40;;;;;;5082605;28;19946;-81
2023/08/15 00:57:04;;;;;;;;;;;16.80;75.40;;;;;;5069413;28;20272;-82
2023/08/15 00:59:30;;;;;;;;;;;16.80;75.50;;;;;;5070309;28;19913;-81
2023/08/15 01:01:55;;;;;;;;;;;16.80;75.40;;;;;;5069224;28;19977;-81
2023/08/15 01:04:21;;;;;;;;;;;16.90;75.40;;;;;;5068824;28;19981;-82
2023/08/15 01:06:48;;;;;;;;;;;17.00;75.40;;;;;;5070733;28;19934;-81
2023/08/15 01:09:14;;;;;;;;;;;17.00;75.30;;;;;;5069236;28;19916;-81
2023/08/15 01:11:45;;;;;;;;;;;17.00;75.20;;;;;;5069320;28;20260;-81
2023/08/15 01:14:13;;;;;;;;;;;17.00;75.20;;;;;;5069387;28;19908;-82
2023/08/15 01:16:42;;;;;;;;;;;17.00;75.20;;;;;;5068887;28;19912;-81
2023/08/15 01:19:17;;;;;;;;;;;17.00;75.20;;;;;;5068765;28;20081;-82
2023/08/15 01:21:43;;;;;;;;;;;17.00;75.30;;;;;;5069066;28;19912;-81
2023/08/15 01:24:09;;;;;;;;;;;16.90;75.30;;;;;;5070159;28;20003;-81
2023/08/15 01:26:35;;;;;;;;;;;16.90;75.20;;;;;;5051988;28;20020;-82
2023/08/15 01:29:00;;;;;;;;;;;16.90;75.30;;;;;;5052140;28;19985;-82
2023/08/15 01:31:36;;;;;;;;;;;16.90;75.80;;;;;;5052182;28;19912;-81
2023/08/15 01:34:05;;;;;;;;;;;16.90;75.30;;;;;;5068396;28;20011;-81
2023/08/15 01:36:32;;;;;;;;;;;16.90;75.30;;;;;;5068939;28;19912;-81
2023/08/15 01:39:02;;;;;;;;;;;16.90;75.30;;;;;;5070019;28;19916;-82
2023/08/15 01:41:28;;;;;;;;;;;16.90;75.30;;;;;;5068654;28;20322;-82
2023/08/15 01:43:54;;;;;;;;;;;16.90;75.30;;;;;;5069734;28;19947;-81
2023/08/15 01:46:20;;;;;;;;;;;17.00;75.40;;;;;;5051564;28;20430;-81
2023/08/15 01:48:45;;;;;;;;;;;17.00;75.40;;;;;;5068335;28;19915;-81
2023/08/15 01:51:11;;;;;;;;;;;17.00;75.40;;;;;;5069702;28;19912;-82
2023/08/15 01:53:37;;;;;;;;;;;17.00;75.40;;;;;;5067815;28;19921;-81
2023/08/15 01:56:03;;;;;;;;;;;17.00;75.30;;;;;;5067887;28;19920;-81
2023/08/15 01:58:28;;;;;;;;;;;17.00;75.40;;;;;;5067662;28;19916;-81
2023/08/15 02:00:54;;;;;;;;;;;17.00;75.40;;;;;;5068005;28;20319;-81
2023/08/15 02:03:19;;;;;;;;;;;17.00;75.30;;;;;;5067997;28;20011;-81
2023/08/15 02:05:45;;;;;;;;;;;17.00;75.30;;;;;;5068100;28;19924;-82
2023/08/15 02:08:11;;;;;;;;;;;17.00;75.30;;;;;;5068183;28;19915;-81
2023/08/15 02:10:36;;;;;;;;;;;16.90;75.30;;;;;;5068303;28;19962;-81
2023/08/15 02:13:02;;;;;;;;;;;16.90;75.30;;;;;;5068571;28;20015;-79
2023/08/15 02:15:27;;;;;;;;;;;16.90;75.30;;;;;;5068060;28;19913;-82
2023/08/15 02:17:53;;;;;;;;;;;16.90;75.30;;;;;;5068113;28;19925;-83
2023/08/15 02:20:19;;;;;;;;;;;16.90;75.30;;;;;;5069344;28;19908;-81
2023/08/15 02:22:44;;;;;;;;;;;16.90;75.30;;;;;;5051625;28;19960;-81
2023/08/15 02:25:10;;;;;;;;;;;16.80;75.30;;;;;;5051085;28;19912;-81
2023/08/15 02:27:35;;;;;;;;;;;16.80;75.40;;;;;;5051008;28;19912;-81
2023/08/15 02:30:01;;;;;;;;;;;16.70;75.30;;;;;;5057501;28;19980;-81
2023/08/15 02:32:27;;;;;;;;;;;16.70;75.40;;;;;;5055025;28;19916;-81
2023/08/15 02:34:52;;;;;;;;;;;16.70;75.30;;;;;;5067510;28;19923;-80
2023/08/15 02:37:18;;;;;;;;;;;16.70;75.40;;;;;;5050941;28;19969;-81
2023/08/15 02:39:43;;;;;;;;;;;16.70;75.40;;;;;;5068178;28;20383;-81
2023/08/15 02:42:09;;;;;;;;;;;16.70;75.40;;;;;;5067785;28;19944;-82
2023/08/15 02:44:34;;;;;;;;;;;16.70;75.40;;;;;;5067763;28;19919;-81
2023/08/15 02:47:00;;;;;;;;;;;16.70;75.40;;;;;;5067981;28;19908;-81
2023/08/15 02:49:25;;;;;;;;;;;16.60;75.40;;;;;;5050970;28;19917;-81
2023/08/15 02:51:51;;;;;;;;;;;16.60;75.40;;;;;;5050917;28;20019;-82
2023/08/15 02:54:17;;;;;;;;;;;16.70;75.50;;;;;;5051056;28;19920;-82
2023/08/15 02:56:42;;;;;;;;;;;16.60;75.50;;;;;;5067992;28;19917;-81
2023/08/15 02:59:08;;;;;;;;;;;16.70;75.50;;;;;;5067174;28;19920;-81
2023/08/15 03:01:33;;;;;;;;;;;16.70;75.40;;;;;;5050501;28;19920;-82
2023/08/15 03:03:59;;;;;;;;;;;16.70;75.40;;;;;;5066943;28;19931;-82
2023/08/15 03:06:25;;;;;;;;;;;16.70;75.40;;;;;;5067461;28;19922;-82
2023/08/15 03:08:50;;;;;;;;;;;16.70;75.40;;;;;;5067226;28;19915;-82
2023/08/15 03:11:16;;;;;;;;;;;16.70;75.40;;;;;;5050999;28;19974;-82
2023/08/15 03:13:41;;;;;;;;;;;16.70;75.40;;;;;;5067349;28;19916;-81
2023/08/15 03:16:07;;;;;;;;;;;16.70;75.50;;;;;;5050950;28;20003;-81
2023/08/15 03:18:32;;;;;;;;;;;16.70;75.40;;;;;;5067408;28;19913;-81
2023/08/15 03:20:59;;;;;;;;;;;16.70;75.40;;;;;;5067479;28;19952;-82
2023/08/15 03:23:24;;;;;;;;;;;16.80;75.50;;;;;;5066717;28;19913;-87
2023/08/15 03:25:57;;;;;;;;;;;16.70;75.50;;;;;;5067869;28;20323;-87
2023/08/15 03:28:22;;;;;;;;;;;16.80;75.60;;;;;;5067163;28;19908;-87
2023/08/15 03:30:48;;;;;;;;;;;16.80;75.50;;;;;;5066767;28;19990;-87
2023/08/15 03:33:14;;;;;;;;;;;16.80;75.60;;;;;;5066746;28;19919;-87
2023/08/15 03:35:49;;;;;;;;;;;16.80;75.50;;;;;;5066984;28;20007;-89
2023/08/15 03:38:16;;;;;;;;;;;16.80;75.60;;;;;;5066713;28;20455;-88
2023/08/15 03:40:46;;;;;;;;;;;16.80;75.50;;;;;;5050029;28;20210;-88
2023/08/15 03:43:12;;;;;;;;;;;16.80;75.60;;;;;;5067849;28;19931;-88
2023/08/15 03:45:38;;;;;;;;;;;16.80;75.60;;;;;;5066802;28;20582;-88
2023/08/15 03:48:04;;;;;;;;;;;16.80;75.60;;;;;;5050953;28;19919;-87
2023/08/15 03:50:31;;;;;;;;;;;16.80;75.60;;;;;;5066396;28;20346;-87
2023/08/15 03:52:57;;;;;;;;;;;16.80;75.60;;;;;;5069432;28;19920;-88
2023/08/15 03:55:22;;;;;;;;;;;16.80;75.60;;;;;;5053585;28;20057;-87
2023/08/15 03:57:48;;;;;;;;;;;16.80;75.60;;;;;;5069985;28;19912;-87
2023/08/15 04:00:18;;;;;;;;;;;16.80;75.60;;;;;;5070364;28;19912;-86
2023/08/15 04:02:44;;;;;;;;;;;16.90;75.70;;;;;;5070419;28;19953;-86
2023/08/15 04:05:11;;;;;;;;;;;16.80;75.60;;;;;;5053349;28;20015;-87
2023/08/15 04:07:37;;;;;;;;;;;16.90;75.60;;;;;;5090033;28;19912;-87
2023/08/15 04:10:02;;;;;;;;;;;16.80;75.60;;;;;;5054068;28;20265;-87
2023/08/15 04:12:28;;;;;;;;;;;16.90;75.70;;;;;;5070292;28;19909;-88
2023/08/15 04:14:53;;;;;;;;;;;16.90;75.70;;;;;;5053875;28;20281;-87
2023/08/15 04:17:19;;;;;;;;;;;16.90;75.70;;;;;;5070071;28;20023;-89
2023/08/15 04:19:45;;;;;;;;;;;16.90;75.60;;;;;;5053332;28;19966;-89
2023/08/15 04:22:10;;;;;;;;;;;16.90;75.60;;;;;;5070179;28;20418;-86
2023/08/15 04:24:36;;;;;;;;;;;16.80;75.60;;;;;;5069917;28;19913;-87
2023/08/15 04:27:01;;;;;;;;;;;16.90;75.70;;;;;;5053232;28;19962;-87
2023/08/15 04:29:27;;;;;;;;;;;16.90;75.70;;;;;;5053174;28;20015;-85
2023/08/15 04:31:52;;;;;;;;;;;16.90;75.70;;;;;;5070499;28;19917;-83
2023/08/15 04:34:18;;;;;;;;;;;16.90;75.70;;;;;;5052424;28;19920;-87
2023/08/15 04:36:46;;;;;;;;;;;16.90;75.70;;;;;;5069030;28;20434;-87
2023/08/15 04:39:12;;;;;;;;;;;16.90;75.70;;;;;;5053078;28;19923;-87
2023/08/15 04:41:38;;;;;;;;;;;16.90;75.70;;;;;;5052492;28;19920;-88
2023/08/15 04:44:03;;;;;;;;;;;16.90;75.80;;;;;;5069042;28;20387;-87
2023/08/15 04:46:29;;;;;;;;;;;16.90;75.80;;;;;;5068945;28;20261;-85
2023/08/15 04:48:55;;;;;;;;;;;16.80;75.70;;;;;;5069317;28;19913;-86
2023/08/15 04:51:20;;;;;;;;;;;16.80;75.70;;;;;;5052295;28;19924;-86
2023/08/15 04:53:46;;;;;;;;;;;16.80;75.70;;;;;;5070325;28;19912;-85
2023/08/15 04:56:12;;;;;;;;;;;16.80;75.70;;;;;;5052412;28;20277;-85
2023/08/15 04:58:38;;;;;;;;;;;16.80;75.80;;;;;;5052668;28;19916;-86
2023/08/15 05:01:04;;;;;;;;;;;16.90;75.90;;;;;;5070333;28;19915;-85
2023/08/15 05:03:29;;;;;;;;;;;16.90;75.90;;;;;;5051539;28;19995;-86
2023/08/15 05:05:55;;;;;;;;;;;16.90;75.80;;;;;;5069169;28;19946;-86
2023/08/15 05:08:20;;;;;;;;;;;17.00;75.80;;;;;;5052416;28;19916;-87
2023/08/15 05:10:46;;;;;;;;;;;16.90;75.80;;;;;;5069154;28;19939;-86
2023/08/15 05:13:12;;;;;;;;;;;16.90;75.70;;;;;;5069086;28;19908;-88
2023/08/15 05:15:37;;;;;;;;;;;16.90;75.70;;;;;;5052736;28;19923;-89
2023/08/15 05:18:03;;;;;;;;;;;16.90;75.80;;;;;;5069639;28;19932;-88
2023/08/15 05:20:29;;;;;;;;;;;16.90;75.90;;;;;;5069130;28;20390;-89
2023/08/15 05:22:55;;;;;;;;;;;16.80;75.80;;;;;;5070230;28;19909;-87
2023/08/15 05:25:21;;;;;;;;;;;16.90;75.90;;;;;;5070040;28;20369;-86
2023/08/15 05:27:48;;;;;;;;;;;16.90;75.80;;;;;;5068255;28;20375;-78
2023/08/15 05:30:13;;;;;;;;;;;16.90;75.90;;;;;;5069557;28;19912;-85
2023/08/15 05:32:39;;;;;;;;;;;16.90;75.90;;;;;;5068830;28;20257;-85
2023/08/15 05:35:05;;;;;;;;;;;16.80;75.70;;;;;;5068459;28;19916;-84
2023/08/15 05:37:30;;;;;;;;;;;16.80;75.70;;;;;;5068871;28;19924;-85
2023/08/15 05:39:56;;;;;;;;;;;16.80;75.80;;;;;;5068022;28;20004;-85
2023/08/15 05:42:21;;;;;;;;;;;16.80;75.90;;;;;;5060332;28;19928;-85
2023/08/15 05:44:47;;;;;;;;;;;16.80;76.00;;;;;;5083114;28;19942;-85
2023/08/15 05:47:13;;;;;;;;;;;16.80;76.00;;;;;;5068315;28;20012;-85
2023/08/15 05:49:38;;;;;;;;;;;16.90;76.00;;;;;;5069848;28;19908;-87
2023/08/15 05:52:04;;;;;;;;;;;16.90;75.90;;;;;;5068752;28;19912;-85
2023/08/15 05:54:30;;;;;;;;;;;16.90;75.90;;;;;;5052254;28;19913;-86
2023/08/15 05:56:55;;;;;;;;;;;17.00;76.00;;;;;;5068260;28;19921;-83
2023/08/15 05:59:21;;;;;;;;;;;17.00;76.00;;;;;;5069539;28;20369;-85
2023/08/15 06:01:46;;;;;;;;;;;17.10;75.90;;;;;;5051718;28;20025;-87
2023/08/15 06:04:12;;;;;;;;;;;17.10;75.90;;;;;;5051941;28;19913;-87
2023/08/15 06:06:38;;;;;;;;;;;17.20;75.90;;;;;;5068207;28;20011;-86
2023/08/15 06:09:03;;;;;;;;;;;17.20;75.90;;;;;;5051169;28;19912;-86
2023/08/15 06:11:29;;;;;;;;;;;17.20;75.90;;;;;;5067532;28;19919;-86
2023/08/15 06:13:55;;;;;;;;;;;17.20;75.70;;;;;;5067816;28;19966;-86
2023/08/15 06:16:20;;;;;;;;;;;17.20;75.70;;;;;;5067467;28;19927;-87
2023/08/15 06:18:46;;;;;;;;;;;17.30;75.80;;;;;;5068336;28;19912;-86
2023/08/15 06:21:12;;;;;;;;;;;17.30;75.80;;;;;;5051631;28;19951;-82
2023/08/15 06:23:37;;;;;;;;;;;17.40;75.90;;;;;;5050683;28;19963;-85
2023/08/15 06:26:03;;;;;;;;;;;17.50;75.80;;;;;;5050933;28;19912;-84
2023/08/15 06:28:29;;;;;;;;;;;17.60;75.80;;;;;;5067879;28;19912;-86
2023/08/15 06:30:54;;;;;;;;;;;17.60;75.80;;;;;;5068538;28;20012;-87
2023/08/15 06:33:20;;;;;;;;;;;17.70;75.80;;;;;;5068717;28;20360;-86
2023/08/15 06:35:45;;;;;;;;;;;17.80;75.90;;;;;;5050425;28;20428;-84
2023/08/15 06:38:11;;;;;;;;;;;17.90;75.80;;;;;;5067349;28;19908;-85
2023/08/15 06:40:36;;;;;;;;;;;17.90;75.80;;;;;;5067222;28;20389;-83
2023/08/15 06:43:02;;;;;;;;;;;18.00;75.70;;;;;;5050713;28;19912;-84
2023/08/15 06:45:28;;;;;;;;;;;18.00;75.70;;;;;;5050661;28;19919;-85
2023/08/15 06:47:53;;;;;;;;;;;18.10;75.70;;;;;;5066898;28;19916;-86
2023/08/15 06:50:19;;;;;;;;;;;18.10;75.70;;;;;;5068197;28;20373;-84
2023/08/15 06:52:44;;;;;;;;;;;18.20;75.80;;;;;;5050940;28;19999;-86
2023/08/15 06:55:10;;;;;;;;;;;18.20;75.70;;;;;;5067421;28;19919;-87
2023/08/15 06:57:36;;;;;;;;;;;18.20;75.70;;;;;;5067223;28;20319;-86
2023/08/15 07:00:06;;;;;;;;;;;18.20;75.60;;;;;;5068462;28;20007;-87
2023/08/15 07:02:32;;;;;;;;;;;18.30;75.70;;;;;;5067314;28;20356;-87
2023/08/15 07:04:57;;;;;;;;;;;18.20;75.80;;;;;;5068512;28;19924;-87
2023/08/15 07:07:23;;;;;;;;;;;18.20;75.80;;;;;;5050241;28;19979;-85
2023/08/15 07:09:49;;;;;;;;;;;18.20;75.80;;;;;;5068057;28;19916;-87
2023/08/15 07:12:17;;;;;;;;;;;18.20;75.70;;;;;;5068148;28;19913;-89
2023/08/15 07:14:46;;;;;;;;;;;18.10;75.70;;;;;;5050817;28;19967;-87
2023/08/15 07:17:12;;;;;;;;;;;18.00;75.70;;;;;;5053100;28;19920;-86
2023/08/15 07:19:37;;;;;;;;;;;18.00;75.80;;;;;;5084268;28;19954;-86
2023/08/15 07:22:03;;;;;;;;;;;18.00;76.00;;;;;;5068484;28;20175;-87
2023/08/15 07:24:29;;;;;;;;;;;18.00;76.00;;;;;;5067547;28;20322;-88
2023/08/15 07:26:54;;;;;;;;;;;18.00;76.00;;;;;;5067892;28;20357;-87
2023/08/15 07:29:20;;;;;;;;;;;18.00;76.00;;;;;;5072149;28;19962;-85
2023/08/15 07:31:45;;;;;;;;;;;18.00;75.90;;;;;;5070750;28;19913;-86
2023/08/15 07:34:11;;;;;;;;;;;18.10;75.90;;;;;;5070734;28;20373;-84
2023/08/15 07:36:37;;;;;;;;;;;18.10;75.90;;;;;;5054447;28;19959;-86
2023/08/15 07:39:03;;;;;;;;;;;18.10;75.90;;;;;;5071458;28;20298;-88
2023/08/15 07:41:29;;;;;;;;;;;18.10;75.90;;;;;;5072532;28;19938;-86
2023/08/15 07:43:54;;;;;;;;;;;18.20;76.00;;;;;;5070447;28;19916;-67
2023/08/15 07:46:20;;;;;;;;;;;18.40;76.10;;;;;;5071030;28;19955;-86
2023/08/15 07:48:46;;;;;;;;;;;18.50;75.90;;;;;;5053512;28;19925;-86
2023/08/15 07:51:11;;;;;;;;;;;18.50;75.80;;;;;;5070568;28;19913;-83
2023/08/15 07:53:37;;;;;;;;;;;18.50;75.90;;;;;;5071262;28;19917;-83
2023/08/15 07:56:03;;;;;;;;;;;18.60;75.90;;;;;;5069991;28;19933;-85
2023/08/15 07:58:29;;;;;;;;;;;18.70;76.00;;;;;;5053201;28;20337;-85
2023/08/15 08:00:55;;;;;;;;;;;18.90;76.10;;;;;;5070197;28;19916;-83
2023/08/15 08:03:20;;;;;;;;;;;19.10;76.60;;;;;;5071033;28;19916;-85
2023/08/15 08:05:46;;;;;;;;;;;19.30;76.00;;;;;;5071330;28;19917;-78
2023/08/15 08:08:13;;;;;;;;;;;19.40;75.90;;;;;;5080061;28;19912;-79
2023/08/15 08:10:39;;;;;;;;;;;19.40;75.90;;;;;;5074648;28;19951;-84
2023/08/15 08:13:06;;;;;;;;;;;19.50;76.00;;;;;;5052709;28;20288;-85
2023/08/15 08:15:32;;;;;;;;;;;19.70;76.10;;;;;;5071114;28;19951;-87
2023/08/15 08:17:57;;;;;;;;;;;20.00;76.00;;;;;;5069332;28;19959;-85
2023/08/15 08:20:25;;;;;;;;;;;20.10;75.70;;;;;;5070982;28;19912;-85
2023/08/15 08:22:50;;;;;;;;;;;20.10;75.60;;;;;;5053145;28;20353;-87
2023/08/15 08:25:18;;;;;;;;;;;20.10;75.60;;;;;;5053884;28;19912;-84
2023/08/15 08:27:44;;;;;;;;;;;20.00;75.60;;;;;;5069360;28;20363;-85
2023/08/15 08:30:10;;;;;;;;;;;20.00;75.60;;;;;;5069292;28;19909;-87
2023/08/15 08:32:36;;;;;;;;;;;20.00;75.80;;;;;;5070058;28;19920;-88
2023/08/15 08:35:01;;;;;;;;;;;20.10;76.10;;;;;;5070649;28;19912;-86
2023/08/15 08:37:27;;;;;;;;;;;20.30;76.00;;;;;;5069448;28;20292;-88
2023/08/15 08:39:52;;;;;;;;;;;20.50;75.90;;;;;;5051140;28;19966;-86
2023/08/15 08:42:18;;;;;;;;;;;20.50;75.80;;;;;;5069936;28;19912;-85
2023/08/15 08:44:46;;;;;;;;;;;20.50;75.70;;;;;;5069387;28;20486;-82
2023/08/15 08:47:12;;;;;;;;;;;20.50;75.80;;;;;;5068834;28;20281;-86
2023/08/15 08:49:40;;;;;;;;;;;20.50;75.90;;;;;;5070341;28;19909;-86
2023/08/15 08:52:06;;;;;;;;;;;20.50;75.90;;;;;;5070515;28;19908;-88
2023/08/15 08:54:31;;;;;;;;;;;20.50;76.00;;;;;;5059031;28;19995;-85
2023/08/15 08:56:58;;;;;;;;;;;20.50;76.00;;;;;;5087161;28;19917;-85
2023/08/15 08:59:25;;;;;;;;;;;20.50;76.10;;;;;;5071614;28;20360;-87
2023/08/15 09:01:51;;;;;;;;;;;20.50;75.90;;;;;;5071082;28;20371;-87
2023/08/15 09:04:18;;;;;;;;;;;20.40;75.80;;;;;;5070082;28;19913;-82
2023/08/15 09:06:43;;;;;;;;;;;20.30;75.90;;;;;;5072121;28;19918;-86
2023/08/15 09:09:09;;;;;;;;;;;20.30;76.00;;;;;;5071015;28;19917;-74
2023/08/15 09:11:35;;;;;;;;;;;20.20;76.10;;;;;;5085999;28;19917;-85
2023/08/15 09:14:05;;;;;;;;;;;20.10;76.20;;;;;;5078213;28;19931;-87
2023/08/15 09:16:31;;;;;;;;;;;20.10;76.30;;;;;;5081506;28;19966;-85
2023/08/15 09:18:59;;;;;;;;;;;20.10;76.40;;;;;;5062229;28;19916;-87
2023/08/15 09:21:26;;;;;;;;;;;20.20;76.60;;;;;;5080712;28;19909;-85
2023/08/15 09:23:52;;;;;;;;;;;20.40;76.70;;;;;;5084345;28;19967;-86
2023/08/15 09:26:18;;;;;;;;;;;20.70;76.80;;;;;;5081148;28;19938;-82
2023/08/15 09:28:44;;;;;;;;;;;21.20;76.90;;;;;;5082328;28;19920;-84
2023/08/15 09:31:10;;;;;;;;;;;21.60;76.70;;;;;;5067275;28;19919;-84
2023/08/15 09:33:39;;;;;;;;;;;22.10;76.70;;;;;;5098435;28;19908;-85
2023/08/15 09:36:05;;;;;;;;;;;22.70;76.70;;;;;;5104059;28;19919;-85
2023/08/15 09:38:31;;;;;;;;;;;23.20;76.50;;;;;;5084302;28;19920;-85
2023/08/15 09:40:57;;;;;;;;;;;23.90;76.50;;;;;;5073264;28;20461;-76
2023/08/15 09:43:23;;;;;;;;;;;24.10;75.90;;;;;;5078623;28;19913;-86
2023/08/15 09:45:49;;;;;;;;;;;24.10;75.70;;;;;;5095890;28;20338;-87
2023/08/15 09:48:16;;;;;;;;;;;24.10;75.70;;;;;;5096179;28;19912;-85
2023/08/15 09:50:42;;;;;;;;;;;24.10;75.70;;;;;;5098176;28;19918;-86
2023/08/15 09:53:09;;;;;;;;;;;24.10;76.00;;;;;;5091876;28;19932;-85
2023/08/15 09:55:35;;;;;;;;;;;24.20;76.20;;;;;;5092536;28;19909;-86
2023/08/15 09:58:00;;;;;;;;;;;24.50;76.30;;;;;;5096624;28;19922;-86
2023/08/15 10:00:27;;;;;;;;;;;24.70;76.40;;;;;;5096203;28;19912;-83
2023/08/15 10:02:52;;;;;;;;;;;25.30;77.30;;;;;;5084287;28;19940;-85
2023/08/15 10:05:20;;;;;;;;;;;26.50;78.40;;;;;;5093934;28;19958;-79
2023/08/15 10:07:46;;;;;;;;;;;28.00;78.60;;;;;;5090431;28;20383;-82
2023/08/15 10:10:13;;;;;;;;;;;28.80;77.70;;;;;;5090663;28;20402;-81
2023/08/15 10:12:40;;;;;;;;;;;30.00;78.10;;;;;;5092319;28;19991;-77
2023/08/15 10:15:07;;;;;;;;;;;30.40;77.30;;;;;;5073504;28;19912;-81
2023/08/15 10:17:33;;;;;;;;;;;30.20;76.20;;;;;;5070410;28;19917;-80
2023/08/15 10:20:05;;;;;;;;;;;30.00;76.70;;;;;;5069018;28;19919;-80
2023/08/15 10:22:33;;;;;;;;;;;29.80;76.20;;;;;;5070344;28;19923;-80
2023/08/15 10:25:17;;;;;;;;;;;29.50;76.30;;;;;;5070393;28;20032;-84
2023/08/15 10:27:48;;;;;;;;;;;29.10;76.20;;;;;;5070644;28;19909;-85
2023/08/15 10:30:27;;;;;;;;;;;28.50;76.10;;;;;;5072242;28;19908;-84
2023/08/15 10:32:53;;;;;;;;;;;28.00;76.40;;;;;;5085938;28;19968;-85
2023/08/15 10:35:24;;;;;;;;;;;27.60;76.60;;;;;;5073791;28;19944;-82
2023/08/15 10:37:49;;;;;;;;;;;27.40;76.70;;;;;;5070175;28;19944;-74
2023/08/15 10:40:15;;;;;;;;;;;27.20;76.90;;;;;;5070264;28;19950;-81
2023/08/15 10:43:00;;;;;;;;;;;27.50;78.10;;;;;;5069583;28;19912;-84
2023/08/15 10:45:26;;;;;;;;;;;28.00;78.50;;;;;;5068612;28;19909;-82
2023/08/15 10:47:54;;;;;;;;;;;28.30;78.00;;;;;;5070044;28;19955;-78
2023/08/15 10:50:21;;;;;;;;;;;28.10;77.30;;;;;;5070210;28;19944;-76
2023/08/15 10:52:56;;;;;;;;;;;27.70;76.70;;;;;;5052118;28;19912;-81
2023/08/15 10:55:24;;;;;;;;;;;27.20;76.80;;;;;;5069724;28;19908;-80
2023/08/15 10:57:50;;;;;;;;;;;26.70;76.90;;;;;;5068644;28;19959;-81
2023/08/15 11:00:19;;;;;;;;;;;26.30;77.10;;;;;;5070117;28;19910;-84
2023/08/15 11:02:45;;;;;;;;;;;26.00;77.10;;;;;;5070678;28;19909;-83
2023/08/15 11:05:10;;;;;;;;;;;25.70;77.00;;;;;;5072533;28;19920;-83
2023/08/15 11:07:36;;;;;;;;;;;25.40;76.90;;;;;;5069672;28;19912;-78
2023/08/15 11:10:02;;;;;;;;;;;25.10;76.80;;;;;;5068958;28;19912;-75
2023/08/15 11:12:27;;;;;;;;;;;24.80;76.80;;;;;;5070146;28;20360;-81
2023/08/15 11:14:53;;;;;;;;;;;24.60;77.10;;;;;;5070371;28;19938;-80
2023/08/15 11:17:18;;;;;;;;;;;24.50;77.40;;;;;;5070740;28;19920;-82
2023/08/15 11:19:45;;;;;;;;;;;24.70;77.70;;;;;;5071465;28;19920;-82
2023/08/15 11:22:11;;;;;;;;;;;25.40;78.80;;;;;;5067707;28;20292;-81
2023/08/15 11:24:37;;;;;;;;;;;26.10;78.30;;;;;;5051136;28;19920;-82
2023/08/15 11:27:03;;;;;;;;;;;26.50;77.70;;;;;;5068489;28;20315;-79
2023/08/15 11:29:28;;;;;;;;;;;26.70;77.00;;;;;;5068175;28;19912;-80
2023/08/15 11:31:58;;;;;;;;;;;26.80;76.70;;;;;;5082836;28;19908;-79
2023/08/15 11:34:24;;;;;;;;;;;26.70;76.40;;;;;;5087991;28;20380;-80
2023/08/15 11:36:49;;;;;;;;;;;26.80;77.30;;;;;;5089006;28;19920;-76
2023/08/15 11:39:15;;;;;;;;;;;27.90;78.60;;;;;;5089236;28;20293;-80
2023/08/15 11:41:40;;;;;;;;;;;28.60;77.90;;;;;;5087952;28;19923;-78
2023/08/15 11:44:06;;;;;;;;;;;28.70;77.20;;;;;;5087232;28;20135;-83
2023/08/15 11:46:37;;;;;;;;;;;28.60;76.60;;;;;;5087635;28;19908;-83
2023/08/15 11:49:02;;;;;;;;;;;28.20;76.30;;;;;;5088426;28;19908;-80
2023/08/15 11:51:28;;;;;;;;;;;27.70;76.20;;;;;;5089926;28;19908;-82
2023/08/15 11:53:54;;;;;;;;;;;27.20;76.20;;;;;;5091512;28;19909;-79
2023/08/15 11:56:20;;;;;;;;;;;26.90;76.80;;;;;;5092123;28;19923;-79
2023/08/15 11:58:46;;;;;;;;;;;27.00;77.30;;;;;;5072229;28;19912;-78
2023/08/15 12:01:12;;;;;;;;;;;27.70;78.30;;;;;;5087155;28;19912;-78
2023/08/15 12:03:38;;;;;;;;;;;28.80;79.10;;;;;;5070970;28;19930;-78
2023/08/15 12:06:08;;;;;;;;;;;29.50;78.10;;;;;;5087352;28;19923;-78
2023/08/15 12:08:34;;;;;;;;;;;29.70;77.20;;;;;;5090319;28;19950;-78
2023/08/15 12:11:01;;;;;;;;;;;29.30;76.40;;;;;;5089134;28;19912;-77
2023/08/15 12:13:31;;;;;;;;;;;29.10;76.50;;;;;;5090140;28;20421;-78
2023/08/15 12:15:57;;;;;;;;;;;28.80;76.20;;;;;;5091040;28;19958;-77
2023/08/15 12:18:22;;;;;;;;;;;28.50;76.30;;;;;;5090992;28;19908;-78
2023/08/15 12:20:48;;;;;;;;;;;28.40;76.90;;;;;;5091124;28;19916;-79
2023/08/15 12:23:13;;;;;;;;;;;28.60;77.80;;;;;;5091214;28;19920;-77
2023/08/15 12:25:39;;;;;;;;;;;29.60;78.80;;;;;;5070866;28;19913;-79
2023/08/15 12:28:05;;;;;;;;;;;30.30;78.40;;;;;;5072627;28;19912;-78
2023/08/15 12:30:30;;;;;;;;;;;31.00;79.10;;;;;;5073340;28;19952;-80
2023/08/15 12:32:56;;;;;;;;;;;31.50;78.10;;;;;;5072315;28;19920;-77
2023/08/15 12:35:21;;;;;;;;;;;31.40;77.30;;;;;;5072996;28;19935;-80
2023/08/15 12:37:47;;;;;;;;;;;31.60;78.20;;;;;;5090201;28;19923;-82
2023/08/15 12:40:12;;;;;;;;;;;31.70;77.70;;;;;;5092289;28;20049;-78
2023/08/15 12:42:38;;;;;;;;;;;31.40;76.90;;;;;;5090857;28;19916;-75
2023/08/15 12:45:04;;;;;;;;;;;31.10;77.00;;;;;;5092092;28;19913;-83
2023/08/15 12:47:29;;;;;;;;;;;30.70;76.90;;;;;;5092322;28;19908;-80
2023/08/15 12:49:55;;;;;;;;;;;30.30;77.20;;;;;;5090905;28;19912;-81
2023/08/15 12:52:20;;;;;;;;;;;30.20;78.60;;;;;;5092246;28;19961;-78
2023/08/15 12:54:46;;;;;;;;;;;30.70;79.50;;;;;;5092600;28;20312;-77
2023/08/15 12:57:12;;;;;;;;;;;31.30;79.30;;;;;;5092163;28;19947;-82
2023/08/15 12:59:37;;;;;;;;;;;32.00;79.70;;;;;;5074099;28;19970;-82
2023/08/15 13:02:03;;;;;;;;;;;32.60;79.00;;;;;;5093749;28;20054;-76
2023/08/15 13:04:28;;;;;;;;;;;32.10;78.00;;;;;;5093912;28;19916;-81
2023/08/15 13:06:54;;;;;;;;;;;31.30;77.80;;;;;;5095637;28;20383;-79
2023/08/15 13:09:20;;;;;;;;;;;30.50;77.90;;;;;;5091186;28;19912;-77
2023/08/15 13:11:45;;;;;;;;;;;29.90;79.60;;;;;;5090059;28;19932;-79
2023/08/15 13:14:11;;;;;;;;;;;30.20;81.20;;;;;;5091910;28;20480;-81
2023/08/15 13:16:37;;;;;;;;;;;30.70;80.50;;;;;;5090308;28;19930;-79
2023/08/15 13:19:03;;;;;;;;;;;30.60;79.00;;;;;;5091312;28;19908;-81
2023/08/15 13:21:28;;;;;;;;;;;30.10;78.20;;;;;;5092256;28;19908;-80
2023/08/15 13:23:54;;;;;;;;;;;29.30;78.10;;;;;;5091009;28;20007;-78
2023/08/15 13:26:20;;;;;;;;;;;29.10;79.40;;;;;;5072584;28;19931;-76
2023/08/15 13:28:46;;;;;;;;;;;28.90;79.10;;;;;;5072693;28;20340;-77
2023/08/15 13:31:12;;;;;;;;;;;28.40;78.60;;;;;;5091821;28;19920;-78
2023/08/15 13:33:38;;;;;;;;;;;27.80;78.70;;;;;;5090915;28;19916;-77
2023/08/15 13:36:03;;;;;;;;;;;27.50;79.40;;;;;;5091472;28;20026;-82
2023/08/15 13:38:29;;;;;;;;;;;27.50;79.50;;;;;;5083700;28;20012;-78
2023/08/15 13:40:54;;;;;;;;;;;27.50;79.40;;;;;;5069412;28;19935;-77
2023/08/15 13:43:20;;;;;;;;;;;27.60;79.10;;;;;;5076387;28;19917;-77
2023/08/15 13:45:45;;;;;;;;;;;27.60;78.60;;;;;;5094929;28;19917;-76
2023/08/15 13:48:11;;;;;;;;;;;27.50;78.30;;;;;;5052491;28;19912;-77
2023/08/15 13:50:37;;;;;;;;;;;27.40;78.00;;;;;;5079388;28;19923;-76
2023/08/15 13:53:02;;;;;;;;;;;27.30;77.80;;;;;;5089546;28;20253;-77
2023/08/15 13:55:28;;;;;;;;;;;27.00;77.40;;;;;;5091147;28;19973;-77
2023/08/15 13:57:53;;;;;;;;;;;26.70;77.30;;;;;;5071560;28;19968;-77
2023/08/15 14:00:19;;;;;;;;;;;26.50;77.40;;;;;;5088901;28;19912;-81
2023/08/15 14:02:44;;;;;;;;;;;26.30;77.20;;;;;;5071861;28;20265;-80
2023/08/15 14:05:10;;;;;;;;;;;26.10;77.10;;;;;;5088679;28;19920;-81
2023/08/15 14:07:36;;;;;;;;;;;25.90;77.10;;;;;;5087808;28;20380;-81
2023/08/15 14:10:01;;;;;;;;;;;25.70;77.20;;;;;;5068500;28;19917;-82